sensor_id;sensor_type;location;lat;lon;timestamp;pressure;altitude;pressure_sealevel;temperature;humidity
33731;BME280;22931;48.636;9.000;2023-07-02T00:03:04;95515.31;;;20.32;56.78
33731;BME280;22931;48.636;9.000;2023-07-02T00:08:18;95510.38;;;20.31;56.90
33731;BME280;22931;48.636;9.000;2023-07-02T00:13:31;95521.19;;;20.24;56.96
33731;BME280;22931;48.636;9.000;2023-07-02T00:18:43;95511.28;;;20.21;56.89
33731;BME280;22931;48.636;9.000;2023-07-02T00:24:04;95503.66;;;20.19;57.42
33731;BME280;22931;48.636;9.000;2023-07-02T00:29:15;95500.72;;;20.10;57.13
33731;BME280;22931;48.636;9.000;2023-07-02T00:34:28;95507.28;;;20.06;57.02
33731;BME280;22931;48.636;9.000;2023-07-02T00:39:39;95506.56;;;20.05;56.89
33731;BME280;22931;48.636;9.000;2023-07-02T00:44:48;95519.19;;;20.01;56.97
33731;BME280;22931;48.636;9.000;2023-07-02T00:49:57;95517.69;;;20.00;57.40
33731;BME280;22931;48.636;9.000;2023-07-02T00:55:10;95515.03;;;20.00;57.28
33731;BME280;22931;48.636;9.000;2023-07-02T01:00:29;95521.47;;;20.03;57.65
33731;BME280;22931;48.636;9.000;2023-07-02T01:05:38;95520.06;;;19.95;56.90
33731;BME280;22931;48.636;9.000;2023-07-02T01:10:49;95524.63;;;19.94;57.63
33731;BME280;22931;48.636;9.000;2023-07-02T01:15:58;95539.22;;;19.86;57.32
33731;BME280;22931;48.636;9.000;2023-07-02T01:21:09;95527.44;;;19.84;57.69
33731;BME280;22931;48.636;9.000;2023-07-02T01:26:20;95515.75;;;19.74;57.16
33731;BME280;22931;48.636;9.000;2023-07-02T01:31:32;95515.84;;;19.67;57.07
33731;BME280;22931;48.636;9.000;2023-07-02T01:36:42;95508.69;;;19.60;57.26
33731;BME280;22931;48.636;9.000;2023-07-02T01:41:52;95516.78;;;19.53;57.30
33731;BME280;22931;48.636;9.000;2023-07-02T01:47:04;95524.88;;;19.46;57.38
33731;BME280;22931;48.636;9.000;2023-07-02T01:52:14;95524.97;;;19.39;57.42
33731;BME280;22931;48.636;9.000;2023-07-02T01:57:22;95518.56;;;19.30;57.34
33731;BME280;22931;48.636;9.000;2023-07-02T02:02:30;95530.06;;;19.23;57.73
33731;BME280;22931;48.636;9.000;2023-07-02T02:07:44;95528.59;;;19.19;58.52
33731;BME280;22931;48.636;9.000;2023-07-02T02:12:52;95515.72;;;19.10;57.63
33731;BME280;22931;48.636;9.000;2023-07-02T02:17:59;95531.75;;;19.06;58.06
33731;BME280;22931;48.636;9.000;2023-07-02T02:23:10;95531.75;;;19.06;58.65
33731;BME280;22931;48.636;9.000;2023-07-02T02:28:18;95517.28;;;19.07;58.84
33731;BME280;22931;48.636;9.000;2023-07-02T02:33:26;95513.06;;;19.10;58.82
33731;BME280;22931;48.636;9.000;2023-07-02T02:38:37;95526.34;;;19.13;59.47
33731;BME280;22931;48.636;9.000;2023-07-02T02:43:45;95530.13;;;19.16;58.79
33731;BME280;22931;48.636;9.000;2023-07-02T02:48:53;95536.22;;;19.17;59.08
33731;BME280;22931;48.636;9.000;2023-07-02T02:54:03;95530.13;;;19.20;58.95
33731;BME280;22931;48.636;9.000;2023-07-02T02:59:11;95538.50;;;19.18;59.24
33731;BME280;22931;48.636;9.000;2023-07-02T03:04:19;95549.94;;;19.19;58.86
33731;BME280;22931;48.636;9.000;2023-07-02T03:09:32;95555.97;;;19.23;58.86
33731;BME280;22931;48.636;9.000;2023-07-02T03:14:40;95565.94;;;19.19;58.80
33731;BME280;22931;48.636;9.000;2023-07-02T03:19:49;95565.22;;;19.15;58.97
33731;BME280;22931;48.636;9.000;2023-07-02T03:25:00;95578.19;;;19.13;59.27
33731;BME280;22931;48.636;9.000;2023-07-02T03:30:09;95580.19;;;19.05;58.66
33731;BME280;22931;48.636;9.000;2023-07-02T03:35:17;95581.38;;;18.97;58.55
33731;BME280;22931;48.636;9.000;2023-07-02T03:40:28;95579.56;;;18.90;58.59
33731;BME280;22931;48.636;9.000;2023-07-02T03:45:38;95587.63;;;18.80;58.67
33731;BME280;22931;48.636;9.000;2023-07-02T03:50:47;95589.22;;;18.70;58.54
33731;BME280;22931;48.636;9.000;2023-07-02T03:55:57;95594.59;;;18.67;59.08
33731;BME280;22931;48.636;9.000;2023-07-02T04:01:05;95602.63;;;18.60;58.93
33731;BME280;22931;48.636;9.000;2023-07-02T04:06:13;95603.44;;;18.53;59.49
33731;BME280;22931;48.636;9.000;2023-07-02T04:11:23;95625.16;;;18.52;60.29
33731;BME280;22931;48.636;9.000;2023-07-02T04:16:31;95621.75;;;18.48;60.02
33731;BME280;22931;48.636;9.000;2023-07-02T04:21:39;95640.81;;;18.46;60.12
33731;BME280;22931;48.636;9.000;2023-07-02T04:26:50;95633.56;;;18.47;60.54
33731;BME280;22931;48.636;9.000;2023-07-02T04:32:20;95637.75;;;18.44;60.61
33731;BME280;22931;48.636;9.000;2023-07-02T04:37:29;95633.19;;;18.44;60.65
33731;BME280;22931;48.636;9.000;2023-07-02T04:42:42;95637.38;;;18.49;61.35
33731;BME280;22931;48.636;9.000;2023-07-02T04:47:52;95638.50;;;18.52;60.82
33731;BME280;22931;48.636;9.000;2023-07-02T04:53:00;95632.34;;;18.55;60.62
33731;BME280;22931;48.636;9.000;2023-07-02T04:58:11;95645.66;;;18.62;61.58
33731;BME280;22931;48.636;9.000;2023-07-02T05:03:18;95653.22;;;18.67;61.07
33731;BME280;22931;48.636;9.000;2023-07-02T05:08:27;95651.25;;;18.74;60.69
33731;BME280;22931;48.636;9.000;2023-07-02T05:13:39;95658.84;;;18.79;61.25
33731;BME280;22931;48.636;9.000;2023-07-02T05:18:47;95671.81;;;18.77;60.23
33731;BME280;22931;48.636;9.000;2023-07-02T05:23:55;95670.31;;;18.76;60.32
33731;BME280;22931;48.636;9.000;2023-07-02T05:29:05;95667.97;;;18.82;61.28
33731;BME280;22931;48.636;9.000;2023-07-02T05:34:13;95670.59;;;18.89;60.63
33731;BME280;22931;48.636;9.000;2023-07-02T05:39:21;95673.97;;;18.96;60.88
33731;BME280;22931;48.636;9.000;2023-07-02T05:44:32;95674.28;;;19.05;61.04
33731;BME280;22931;48.636;9.000;2023-07-02T05:49:41;95676.50;;;19.14;60.74
33731;BME280;22931;48.636;9.000;2023-07-02T05:54:49;95687.88;;;19.22;60.57
33731;BME280;22931;48.636;9.000;2023-07-02T05:59:59;95683.22;;;19.29;60.46
33731;BME280;22931;48.636;9.000;2023-07-02T06:05:08;95688.91;;;19.35;60.64
33731;BME280;22931;48.636;9.000;2023-07-02T06:10:17;95687.75;;;19.39;60.27
33731;BME280;22931;48.636;9.000;2023-07-02T06:15:29;95696.81;;;19.49;60.97
33731;BME280;22931;48.636;9.000;2023-07-02T06:20:39;95701.34;;;19.52;60.32
33731;BME280;22931;48.636;9.000;2023-07-02T06:25:47;95690.66;;;19.52;60.83
33731;BME280;22931;48.636;9.000;2023-07-02T06:31:02;95691.03;;;19.54;60.77
33731;BME280;22931;48.636;9.000;2023-07-02T06:36:11;95700.56;;;19.55;60.61
33731;BME280;22931;48.636;9.000;2023-07-02T06:41:22;95702.09;;;19.56;60.42
33731;BME280;22931;48.636;9.000;2023-07-02T06:46:32;95698.25;;;19.57;60.90
33731;BME280;22931;48.636;9.000;2023-07-02T06:51:40;95711.97;;;19.59;60.10
33731;BME280;22931;48.636;9.000;2023-07-02T06:56:49;95710.44;;;19.58;60.77
33731;BME280;22931;48.636;9.000;2023-07-02T07:02:01;95715.34;;;19.63;60.23
33731;BME280;22931;48.636;9.000;2023-07-02T09:44:55;95731.41;;;22.30;53.58
33731;BME280;22931;48.636;9.000;2023-07-02T10:21:30;95714.34;;;23.28;50.84
33731;BME280;22931;48.636;9.000;2023-07-02T10:27:56;95726.53;;;23.48;51.47
33731;BME280;22931;48.636;9.000;2023-07-02T10:33:54;95721.22;;;23.61;50.45
33731;BME280;22931;48.636;9.000;2023-07-02T10:39:50;95716.16;;;23.79;50.37
33731;BME280;22931;48.636;9.000;2023-07-02T10:45:50;95711.59;;;23.92;49.48
33731;BME280;22931;48.636;9.000;2023-07-02T10:51:26;95709.56;;;23.96;48.64
33731;BME280;22931;48.636;9.000;2023-07-02T11:15:44;95712.28;;;24.38;48.26
33731;BME280;22931;48.636;9.000;2023-07-02T11:28:07;95712.66;;;24.65;47.87
33731;BME280;22931;48.636;9.000;2023-07-02T11:40:48;95716.91;;;24.91;46.97
33731;BME280;22931;48.636;9.000;2023-07-02T11:46:41;95700.31;;;25.05;46.11
33731;BME280;22931;48.636;9.000;2023-07-02T11:52:25;95701.38;;;25.08;46.77
33731;BME280;22931;48.636;9.000;2023-07-02T12:03:15;95689.97;;;25.16;45.24
33731;BME280;22931;48.636;9.000;2023-07-02T12:15:01;95691.00;;;25.31;44.91
33731;BME280;22931;48.636;9.000;2023-07-02T12:20:29;95690.91;;;25.35;45.05
33731;BME280;22931;48.636;9.000;2023-07-02T12:31:55;95683.13;;;25.49;43.91
33731;BME280;22931;48.636;9.000;2023-07-02T12:37:19;95673.28;;;25.55;43.53
33731;BME280;22931;48.636;9.000;2023-07-02T12:42:38;95677.25;;;25.64;43.06
33731;BME280;22931;48.636;9.000;2023-07-02T13:37:34;95671.75;;;26.23;41.60
33731;BME280;22931;48.636;9.000;2023-07-02T13:54:55;95667.31;;;26.38;40.12
33731;BME280;22931;48.636;9.000;2023-07-02T14:00:23;95663.03;;;26.50;40.52
33731;BME280;22931;48.636;9.000;2023-07-02T14:05:43;95672.19;;;26.52;39.54
33731;BME280;22931;48.636;9.000;2023-07-02T14:11:11;95658.13;;;26.57;38.07
33731;BME280;22931;48.636;9.000;2023-07-02T14:16:45;95659.34;;;26.65;40.14
33731;BME280;22931;48.636;9.000;2023-07-02T14:22:20;95675.84;;;26.67;40.62
33731;BME280;22931;48.636;9.000;2023-07-02T14:33:42;95670.56;;;26.55;40.57
33731;BME280;22931;48.636;9.000;2023-07-02T14:57:37;95669.41;;;26.65;39.66
33731;BME280;22931;48.636;9.000;2023-07-02T15:04:17;95669.41;;;26.65;40.15
33731;BME280;22931;48.636;9.000;2023-07-02T15:16:24;95665.16;;;26.55;39.22
33731;BME280;22931;48.636;9.000;2023-07-02T15:21:54;95659.88;;;26.51;39.65
33731;BME280;22931;48.636;9.000;2023-07-02T15:27:37;95658.41;;;26.50;37.60
33731;BME280;22931;48.636;9.000;2023-07-02T15:52:41;95676.66;;;26.46;39.02
33731;BME280;22931;48.636;9.000;2023-07-02T16:00:23;95662.97;;;26.41;39.10
33731;BME280;22931;48.636;9.000;2023-07-02T16:04:40;95673.03;;;26.40;38.18
33731;BME280;22931;48.636;9.000;2023-07-02T16:10:21;95672.63;;;26.20;38.49
33731;BME280;22931;48.636;9.000;2023-07-02T16:15:56;95679.84;;;26.23;38.82
33731;BME280;22931;48.636;9.000;2023-07-02T16:21:30;95676.63;;;26.15;39.55
33731;BME280;22931;48.636;9.000;2023-07-02T16:27:07;95669.31;;;26.16;39.17
33731;BME280;22931;48.636;9.000;2023-07-02T16:35:11;95674.72;;;26.03;38.40
33731;BME280;22931;48.636;9.000;2023-07-02T16:39:56;95669.13;;;25.98;38.82
33731;BME280;22931;48.636;9.000;2023-07-02T16:45:01;95673.00;;;25.97;38.35
33731;BME280;22931;48.636;9.000;2023-07-02T16:50:19;95675.22;;;25.89;39.26
33731;BME280;22931;48.636;9.000;2023-07-02T16:55:38;95677.72;;;25.84;38.83
33731;BME280;22931;48.636;9.000;2023-07-02T17:00:58;95675.69;;;25.75;38.99
33731;BME280;22931;48.636;9.000;2023-07-02T17:06:30;95671.19;;;25.72;38.88
33731;BME280;22931;48.636;9.000;2023-07-02T17:24:32;95679.72;;;25.71;38.73
33731;BME280;22931;48.636;9.000;2023-07-02T17:30:17;95679.53;;;25.65;38.50
33731;BME280;22931;48.636;9.000;2023-07-02T17:38:23;95673.69;;;25.67;37.97
33731;BME280;22931;48.636;9.000;2023-07-02T17:48:14;95679.44;;;25.43;37.26
33731;BME280;22931;48.636;9.000;2023-07-02T17:59:21;95686.56;;;25.37;37.33
33731;BME280;22931;48.636;9.000;2023-07-02T18:04:46;95680.47;;;25.12;38.31
33731;BME280;22931;48.636;9.000;2023-07-02T18:10:09;95682.00;;;25.00;38.50
33731;BME280;22931;48.636;9.000;2023-07-02T18:21:35;95684.16;;;24.80;37.88
33731;BME280;22931;48.636;9.000;2023-07-02T18:32:46;95688.13;;;24.63;38.66
33731;BME280;22931;48.636;9.000;2023-07-02T18:38:47;95684.13;;;24.55;38.64
33731;BME280;22931;48.636;9.000;2023-07-02T18:44:26;95686.34;;;24.44;38.39
33731;BME280;22931;48.636;9.000;2023-07-02T18:50:28;95682.13;;;24.17;39.87
33731;BME280;22931;48.636;9.000;2023-07-02T19:02:32;95684.66;;;23.80;40.54
33731;BME280;22931;48.636;9.000;2023-07-02T19:09:00;95691.25;;;23.62;41.32
33731;BME280;22931;48.636;9.000;2023-07-02T19:14:47;95704.88;;;23.39;41.36
33731;BME280;22931;48.636;9.000;2023-07-02T19:26:35;95709.81;;;23.25;41.78
33731;BME280;22931;48.636;9.000;2023-07-02T19:34:07;95716.88;;;23.19;42.35
33731;BME280;22931;48.636;9.000;2023-07-02T19:39:12;95727.41;;;22.93;42.60
33731;BME280;22931;48.636;9.000;2023-07-02T19:50:42;95741.78;;;22.67;42.48
33731;BME280;22931;48.636;9.000;2023-07-02T19:56:22;95754.16;;;22.61;42.65
33731;BME280;22931;48.636;9.000;2023-07-02T20:08:44;95765.00;;;22.54;43.01
33731;BME280;22931;48.636;9.000;2023-07-02T20:14:44;95775.19;;;22.43;42.79
33731;BME280;22931;48.636;9.000;2023-07-02T20:27:31;95790.31;;;22.14;44.02
33731;BME280;22931;48.636;9.000;2023-07-02T20:45:22;95803.84;;;21.34;44.23
33731;BME280;22931;48.636;9.000;2023-07-02T21:09:37;95820.41;;;20.65;44.88
33731;BME280;22931;48.636;9.000;2023-07-02T21:17:07;95816.34;;;20.53;45.21
33731;BME280;22931;48.636;9.000;2023-07-02T22:02:45;95833.47;;;19.16;46.93
33731;BME280;22931;48.636;9.000;2023-07-02T22:08:04;95830.94;;;18.94;47.10
33731;BME280;22931;48.636;9.000;2023-07-02T22:13:16;95832.53;;;18.74;46.89
33731;BME280;22931;48.636;9.000;2023-07-02T22:18:27;95831.47;;;18.61;47.74
33731;BME280;22931;48.636;9.000;2023-07-02T22:23:37;95832.63;;;18.57;47.62
33731;BME280;22931;48.636;9.000;2023-07-02T22:28:50;95837.16;;;18.67;47.61
33731;BME280;22931;48.636;9.000;2023-07-02T22:34:01;95837.84;;;18.81;48.24
33731;BME280;22931;48.636;9.000;2023-07-02T22:39:09;95832.75;;;19.11;47.92
33731;BME280;22931;48.636;9.000;2023-07-02T22:44:17;95828.28;;;18.98;47.76
33731;BME280;22931;48.636;9.000;2023-07-02T22:49:28;95835.06;;;19.06;47.89
33731;BME280;22931;48.636;9.000;2023-07-02T22:54:38;95831.22;;;19.10;47.83
33731;BME280;22931;48.636;9.000;2023-07-02T22:59:47;95826.28;;;19.13;47.36
33731;BME280;22931;48.636;9.000;2023-07-02T23:05:00;95832.34;;;19.17;47.35
33731;BME280;22931;48.636;9.000;2023-07-02T23:10:15;95832.34;;;19.17;47.32
33731;BME280;22931;48.636;9.000;2023-07-02T23:15:26;95828.13;;;19.19;47.70
33731;BME280;22931;48.636;9.000;2023-07-02T23:20:37;95825.00;;;19.35;47.34
33731;BME280;22931;48.636;9.000;2023-07-02T23:25:47;95815.31;;;19.00;47.28
33731;BME280;22931;48.636;9.000;2023-07-02T23:30:56;95815.41;;;18.75;47.11
33731;BME280;22931;48.636;9.000;2023-07-02T23:36:07;95813.59;;;18.58;47.91
33731;BME280;22931;48.636;9.000;2023-07-02T23:41:16;95815.44;;;18.65;48.52
33731;BME280;22931;48.636;9.000;2023-07-02T23:46:24;95816.31;;;18.37;48.15
33731;BME280;22931;48.636;9.000;2023-07-02T23:51:35;95814.41;;;18.27;48.34
33731;BME280;22931;48.636;9.000;2023-07-02T23:56:43;95814.84;;;18.08;48.25
